createdAt,value
2022-08-25T00:02:27.317Z,28.63
2022-08-25T00:05:16.314Z,28.60
2022-08-25T00:08:07.631Z,28.59
2022-08-25T00:11:03.088Z,28.58
2022-08-25T00:13:55.596Z,28.54
2022-08-25T00:16:44.471Z,28.54
2022-08-25T00:19:35.619Z,28.56
2022-08-25T00:22:24.194Z,28.55
2022-08-25T00:25:13.029Z,28.57
2022-08-25T00:28:07.839Z,28.56
2022-08-25T00:30:57.052Z,28.54
2022-08-25T00:33:46.350Z,28.54
2022-08-25T00:36:35.290Z,28.55
2022-08-25T00:39:25.014Z,28.58
2022-08-25T00:42:16.097Z,28.55
2022-08-25T00:45:08.507Z,28.53
2022-08-25T00:48:02.640Z,28.54
2022-08-25T00:50:51.197Z,28.53
2022-08-25T00:53:40.890Z,28.50
2022-08-25T00:56:31.577Z,28.51
2022-08-25T00:59:21.052Z,28.54
2022-08-25T01:02:13.588Z,28.52
2022-08-25T01:05:02.547Z,28.55
2022-08-25T01:07:51.696Z,28.53
2022-08-25T01:10:42.862Z,28.49
2022-08-25T01:13:34.078Z,28.48
2022-08-25T01:16:22.645Z,28.50
2022-08-25T01:19:15.369Z,28.48
2022-08-25T01:22:06.773Z,28.47
2022-08-25T01:24:59.126Z,28.48
2022-08-25T01:27:47.630Z,28.49
2022-08-25T01:30:36.615Z,28.48
2022-08-25T01:33:25.607Z,28.43
2022-08-25T01:36:14.072Z,28.42
2022-08-25T01:39:05.051Z,28.39
2022-08-25T01:42:10.623Z,28.41
2022-08-25T01:44:59.137Z,28.43
2022-08-25T01:47:47.638Z,28.48
2022-08-25T01:50:37.513Z,28.46
2022-08-25T01:53:29.488Z,28.42
2022-08-25T01:56:23.359Z,28.39
2022-08-25T01:59:12.025Z,28.38
2022-08-25T02:02:00.599Z,28.39
2022-08-25T02:04:51.559Z,28.41
2022-08-25T02:07:40.104Z,28.41
2022-08-25T02:10:28.649Z,28.38
2022-08-25T02:13:20.777Z,28.44
2022-08-25T02:16:20.631Z,28.44
2022-08-25T02:19:12.251Z,28.41
2022-08-25T02:22:01.966Z,28.40
2022-08-25T02:24:50.637Z,28.40
2022-08-25T02:27:39.274Z,28.40
2022-08-25T02:30:29.244Z,28.40
2022-08-25T02:33:17.841Z,28.40
2022-08-25T02:36:08.531Z,28.39
2022-08-25T02:38:57.036Z,28.38
2022-08-25T02:41:45.555Z,28.39
2022-08-25T02:44:34.097Z,28.40
2022-08-25T02:47:27.000Z,28.37
2022-08-25T02:50:16.108Z,28.35
2022-08-25T02:53:04.662Z,28.34
2022-08-25T02:55:53.149Z,28.34
2022-08-25T02:58:42.900Z,28.35
2022-08-25T03:01:32.652Z,28.32
2022-08-25T03:04:22.728Z,28.32
2022-08-25T03:07:12.630Z,28.33
2022-08-25T03:10:01.202Z,28.32
2022-08-25T03:12:49.754Z,28.33
2022-08-25T03:15:38.402Z,28.33
2022-08-25T03:18:27.664Z,28.33
2022-08-25T03:21:18.671Z,28.33
2022-08-25T03:24:07.832Z,28.34
2022-08-25T03:26:56.048Z,28.32
2022-08-25T03:29:44.592Z,28.31
2022-08-25T03:32:34.042Z,28.28
2022-08-25T03:35:22.954Z,28.29
2022-08-25T03:38:13.054Z,28.30
2022-08-25T03:41:02.108Z,28.30
2022-08-25T03:43:51.419Z,28.27
2022-08-25T03:46:41.768Z,28.30
2022-08-25T03:49:31.488Z,28.33
2022-08-25T03:52:21.971Z,28.30
2022-08-25T03:55:14.947Z,28.32
2022-08-25T03:58:03.574Z,28.32
2022-08-25T04:00:52.288Z,28.32
2022-08-25T04:03:40.885Z,28.34
2022-08-25T04:06:29.417Z,28.37
2022-08-25T04:09:17.963Z,28.35
2022-08-25T04:12:08.278Z,28.34
2022-08-25T04:14:57.065Z,28.34
2022-08-25T04:17:45.691Z,28.36
2022-08-25T04:20:35.079Z,28.42
2022-08-25T04:23:23.610Z,28.41
2022-08-25T04:26:12.511Z,28.46
2022-08-25T04:29:04.015Z,28.49
2022-08-25T04:31:53.467Z,28.56
2022-08-25T04:34:45.002Z,28.63
2022-08-25T04:37:37.537Z,28.59
2022-08-25T04:40:34.864Z,28.65
2022-08-25T04:43:25.678Z,28.63
2022-08-25T04:46:20.544Z,28.63
2022-08-25T04:49:10.079Z,28.63
2022-08-25T04:51:59.264Z,28.65
2022-08-25T04:54:47.947Z,28.72
2022-08-25T04:57:36.475Z,28.68
2022-08-25T05:00:25.316Z,28.72
2022-08-25T05:03:15.636Z,28.74
2022-08-25T05:06:05.112Z,28.73
2022-08-25T05:08:54.011Z,28.66
2022-08-25T05:11:42.647Z,28.63
2022-08-25T05:14:32.086Z,28.64
2022-08-25T05:17:20.681Z,28.62
2022-08-25T05:20:13.020Z,28.61
2022-08-25T05:23:01.612Z,28.58
2022-08-25T05:25:50.903Z,28.60
2022-08-25T05:28:44.482Z,28.59
2022-08-25T05:31:36.331Z,28.60
2022-08-25T05:34:27.017Z,28.62
2022-08-25T05:37:16.992Z,28.61
2022-08-25T05:40:06.803Z,28.61
2022-08-25T05:42:55.732Z,28.62
2022-08-25T05:45:44.359Z,28.61
2022-08-25T05:48:32.901Z,28.60
2022-08-25T05:51:21.571Z,28.62
2022-08-25T05:54:11.413Z,28.63
2022-08-25T05:57:01.135Z,28.64
2022-08-25T05:59:49.646Z,28.62
2022-08-25T06:02:44.186Z,28.65
2022-08-25T06:05:32.899Z,28.66
2022-08-25T06:08:21.474Z,28.68
2022-08-25T06:11:12.564Z,28.69
2022-08-25T06:14:01.055Z,28.71
2022-08-25T06:16:51.529Z,28.74
2022-08-25T06:19:41.303Z,28.73
2022-08-25T06:22:30.157Z,28.77
2022-08-25T06:25:21.571Z,28.75
2022-08-25T06:28:11.541Z,28.76
2022-08-25T06:31:01.290Z,28.74
2022-08-25T06:33:50.200Z,28.75
2022-08-25T06:36:38.848Z,28.78
2022-08-25T06:39:27.543Z,28.79
2022-08-25T06:42:16.133Z,28.81
2022-08-25T06:45:07.113Z,28.81
2022-08-25T06:47:55.671Z,28.81
2022-08-25T06:50:44.611Z,28.84
2022-08-25T06:53:33.206Z,28.83
2022-08-25T06:56:23.210Z,28.85
2022-08-25T06:59:12.832Z,28.88
2022-08-25T07:02:03.712Z,28.87
2022-08-25T07:04:53.568Z,28.87
2022-08-25T07:07:44.380Z,28.87
2022-08-25T07:10:33.075Z,28.88
2022-08-25T07:13:22.502Z,28.90
2022-08-25T07:16:12.048Z,28.93
2022-08-25T07:19:02.625Z,28.90
2022-08-25T07:21:52.528Z,28.91
2022-08-25T07:24:41.169Z,28.92
2022-08-25T07:27:29.706Z,28.92
2022-08-25T07:30:18.714Z,28.93
2022-08-25T07:33:09.872Z,28.93
2022-08-25T07:35:59.543Z,28.96
2022-08-25T07:38:48.032Z,28.95
2022-08-25T07:41:39.455Z,28.94
2022-08-25T07:44:28.753Z,28.98
2022-08-25T07:47:17.465Z,28.99
2022-08-25T07:50:13.776Z,28.97
2022-08-25T07:53:04.553Z,28.97
2022-08-25T07:55:53.638Z,28.97
2022-08-25T07:58:42.900Z,29.00
2022-08-25T08:01:32.913Z,29.00
2022-08-25T08:04:22.339Z,28.98
2022-08-25T08:07:12.158Z,28.98
2022-08-25T08:10:33.169Z,29.01
2022-08-25T08:13:14.383Z,29.02
2022-08-25T08:16:12.314Z,29.03
2022-08-25T08:19:03.010Z,29.06
2022-08-25T08:21:53.633Z,29.05
2022-08-25T08:24:56.296Z,29.09
2022-08-25T08:27:47.154Z,29.12
2022-08-25T08:30:36.608Z,29.13
2022-08-25T08:33:25.753Z,29.14
2022-08-25T08:36:16.694Z,29.13
2022-08-25T08:39:05.501Z,29.12
2022-08-25T08:42:22.233Z,29.13
2022-08-25T08:45:26.539Z,29.16
2022-08-25T08:48:28.205Z,29.13
2022-08-25T08:51:23.080Z,29.12
2022-08-25T08:54:16.619Z,29.15
2022-08-25T08:57:09.772Z,29.15
2022-08-25T09:00:01.893Z,29.14
2022-08-25T09:02:55.206Z,29.16
2022-08-25T09:05:47.863Z,29.17
2022-08-25T09:08:38.208Z,29.17
2022-08-25T09:11:43.755Z,29.19
2022-08-25T09:14:53.927Z,29.18
2022-08-25T09:17:54.617Z,29.16
2022-08-25T09:20:50.962Z,29.17
2022-08-25T09:23:48.233Z,29.19
2022-08-25T09:26:39.658Z,29.20
2022-08-25T09:29:35.522Z,29.21
2022-08-25T09:32:31.612Z,29.21
2022-08-25T09:35:23.110Z,29.21
2022-08-25T09:38:13.242Z,29.20
2022-08-25T09:41:02.979Z,29.22
2022-08-25T09:43:55.182Z,29.28
2022-08-25T09:46:57.088Z,29.27
2022-08-25T09:49:47.453Z,29.28
2022-08-25T09:52:41.108Z,29.29
2022-08-25T09:55:34.309Z,29.30
2022-08-25T09:58:25.771Z,29.31
2022-08-25T10:01:18.064Z,29.33
2022-08-25T10:04:13.921Z,29.33
2022-08-25T10:07:24.035Z,29.32
2022-08-25T10:10:20.783Z,29.33
2022-08-25T10:13:16.272Z,29.37
2022-08-25T10:16:20.567Z,29.37
2022-08-25T10:19:15.729Z,29.35
2022-08-25T10:22:07.822Z,29.35
2022-08-25T10:24:56.335Z,29.34
2022-08-25T10:27:54.253Z,29.36
2022-08-25T10:30:53.438Z,29.36
2022-08-25T10:33:50.406Z,29.37
2022-08-25T10:36:48.967Z,29.37
2022-08-25T10:39:42.221Z,29.37
2022-08-25T10:42:39.926Z,29.38
2022-08-25T10:45:45.442Z,29.39
2022-08-25T10:48:48.082Z,29.41
2022-08-25T10:51:45.050Z,29.42
2022-08-25T10:54:42.165Z,29.38
2022-08-25T10:57:37.001Z,29.39
2022-08-25T11:00:31.780Z,29.38
2022-08-25T11:03:38.197Z,29.39
2022-08-25T11:06:31.939Z,29.39
2022-08-25T11:09:23.605Z,29.42
2022-08-25T11:12:13.722Z,29.42
2022-08-25T11:15:05.708Z,29.44
2022-08-25T11:17:58.543Z,29.44
2022-08-25T11:21:01.674Z,29.46
2022-08-25T11:23:55.769Z,29.47
2022-08-25T11:26:48.321Z,29.46
2022-08-25T11:29:39.701Z,29.48
2022-08-25T11:32:33.292Z,29.47
2022-08-25T11:35:29.249Z,29.50
2022-08-25T11:38:29.548Z,29.48
2022-08-25T11:41:26.299Z,29.50
2022-08-25T11:44:26.276Z,29.50
2022-08-25T11:47:35.759Z,29.54
2022-08-25T11:50:32.795Z,29.54
2022-08-25T11:53:28.413Z,29.52
2022-08-25T11:56:34.685Z,29.55
2022-08-25T12:00:00.706Z,29.55
2022-08-25T12:02:50.562Z,29.56
2022-08-25T12:05:54.067Z,29.59
2022-08-25T12:08:52.553Z,29.60
2022-08-25T12:11:56.407Z,29.58
2022-08-25T12:14:47.974Z,29.61
2022-08-25T12:17:40.592Z,29.59
2022-08-25T12:21:03.968Z,29.60
2022-08-25T12:24:11.358Z,29.61
2022-08-25T12:27:02.002Z,29.62
2022-08-25T12:29:58.077Z,29.62
2022-08-25T12:33:01.501Z,29.65
2022-08-25T12:35:57.822Z,29.64
2022-08-25T12:38:51.938Z,29.67
2022-08-25T12:41:54.651Z,29.67
2022-08-25T12:44:47.947Z,29.68
2022-08-25T12:47:40.837Z,29.69
2022-08-25T12:50:40.556Z,29.71
2022-08-25T12:53:36.099Z,29.70
2022-08-25T12:56:31.016Z,29.72
2022-08-25T12:59:22.883Z,29.71
2022-08-25T13:02:29.384Z,29.73
2022-08-25T13:05:36.847Z,29.75
2022-08-25T13:08:52.356Z,29.74
2022-08-25T13:11:49.574Z,29.73
2022-08-25T13:14:44.353Z,29.73
2022-08-25T13:17:34.587Z,29.74
2022-08-25T13:20:26.964Z,29.73
2022-08-25T13:23:19.076Z,29.74
2022-08-25T13:26:11.409Z,29.73
2022-08-25T13:29:01.767Z,29.72
2022-08-25T13:31:59.452Z,29.73
2022-08-25T13:34:52.601Z,29.73
2022-08-25T13:37:41.098Z,29.76
2022-08-25T13:40:33.835Z,29.74
2022-08-25T13:43:27.708Z,29.72
2022-08-25T13:46:20.596Z,29.76
2022-08-25T13:49:11.067Z,29.76
2022-08-25T13:51:59.761Z,29.77
2022-08-25T13:54:49.227Z,29.78
2022-08-25T13:57:38.882Z,29.76
2022-08-25T14:00:32.562Z,29.76
2022-08-25T14:03:32.031Z,29.76
2022-08-25T14:06:25.550Z,29.74
2022-08-25T14:09:17.062Z,29.76
2022-08-25T14:12:05.822Z,29.74
2022-08-25T14:15:00.370Z,29.75
2022-08-25T14:18:01.145Z,29.75
2022-08-25T14:20:52.447Z,29.77
2022-08-25T14:23:44.021Z,29.79
2022-08-25T14:26:32.563Z,29.82
2022-08-25T14:29:22.228Z,29.86
2022-08-25T14:32:11.314Z,29.88
2022-08-25T14:35:01.807Z,29.89
2022-08-25T14:37:58.435Z,29.92
2022-08-25T14:40:48.574Z,29.90
2022-08-25T14:43:38.880Z,29.89
2022-08-25T14:46:30.149Z,29.89
2022-08-25T14:49:24.995Z,29.88
2022-08-25T14:52:22.476Z,29.90
2022-08-25T14:55:12.804Z,29.92
2022-08-25T14:58:11.063Z,29.92
2022-08-25T15:01:00.135Z,29.91
2022-08-25T15:03:51.025Z,29.98
2022-08-25T15:06:39.540Z,29.99
2022-08-25T15:09:33.279Z,30.00
2022-08-25T15:12:45.956Z,30.02
2022-08-25T15:15:33.086Z,30.02
2022-08-25T15:18:21.991Z,30.03
2022-08-25T15:21:10.644Z,30.07
2022-08-25T15:24:00.354Z,30.10
2022-08-25T15:29:44.395Z,30.07
2022-08-25T15:32:34.953Z,30.06
2022-08-25T15:35:23.884Z,30.08
2022-08-25T15:38:17.762Z,30.05
2022-08-25T15:41:08.317Z,30.03
2022-08-25T15:43:59.617Z,30.01
2022-08-25T15:46:50.029Z,29.99
2022-08-25T15:49:40.284Z,29.98
2022-08-25T15:52:44.472Z,30.00
2022-08-25T15:55:35.196Z,29.97
2022-08-25T15:58:23.792Z,29.94
2022-08-25T16:01:14.666Z,29.97
2022-08-25T16:04:03.509Z,29.95
2022-08-25T16:06:54.218Z,29.93
2022-08-25T16:09:44.203Z,29.95
2022-08-25T16:12:33.273Z,29.93
2022-08-25T16:15:23.955Z,29.93
2022-08-25T16:18:17.807Z,29.94
2022-08-25T16:21:12.719Z,29.96
2022-08-25T16:24:07.439Z,29.95
2022-08-25T16:27:11.624Z,29.96
2022-08-25T16:30:01.167Z,29.98
2022-08-25T16:32:49.716Z,29.99
2022-08-25T16:35:40.635Z,30.01
2022-08-25T16:38:29.306Z,29.99
2022-08-25T16:41:21.215Z,29.98
2022-08-25T16:44:11.075Z,29.98
2022-08-25T16:46:59.883Z,29.96
2022-08-25T16:49:49.176Z,29.96
2022-08-25T16:52:55.675Z,29.96
2022-08-25T16:55:47.028Z,30.00
2022-08-25T16:58:37.572Z,29.93
2022-08-25T17:01:30.545Z,29.92
2022-08-25T17:04:19.233Z,29.93
2022-08-25T17:07:07.952Z,29.93
2022-08-25T17:09:58.016Z,29.88
2022-08-25T17:12:46.600Z,29.89
2022-08-25T17:15:40.155Z,29.91
2022-08-25T17:18:29.429Z,29.91
2022-08-25T17:21:24.059Z,29.89
2022-08-25T17:24:14.049Z,29.89
2022-08-25T17:27:02.774Z,29.89
2022-08-25T17:29:51.378Z,29.89
2022-08-25T17:32:41.844Z,29.88
2022-08-25T17:35:34.026Z,29.89
2022-08-25T17:38:25.917Z,29.88
2022-08-25T17:41:15.245Z,29.88
2022-08-25T17:44:04.254Z,29.88
2022-08-25T17:46:52.876Z,29.87
2022-08-25T17:49:42.911Z,29.86
2022-08-25T17:52:31.459Z,29.85
2022-08-25T17:55:22.997Z,29.85
2022-08-25T17:58:12.497Z,29.85
2022-08-25T18:01:01.257Z,29.85
2022-08-25T18:03:49.847Z,29.84
2022-08-25T18:06:40.439Z,29.80
2022-08-25T18:09:29.161Z,29.77
2022-08-25T18:12:17.639Z,29.79
2022-08-25T18:15:09.967Z,29.77
2022-08-25T18:17:58.520Z,29.74
2022-08-25T18:20:47.553Z,29.76
2022-08-25T18:23:37.470Z,29.76
2022-08-25T18:26:26.493Z,29.74
2022-08-25T18:29:16.694Z,29.73
2022-08-25T18:32:06.274Z,29.75
2022-08-25T18:34:55.930Z,29.75
2022-08-25T18:38:04.126Z,29.73
2022-08-25T18:40:59.361Z,29.74
2022-08-25T18:43:47.929Z,29.76
2022-08-25T18:46:36.632Z,29.70
2022-08-25T18:49:28.628Z,29.70
2022-08-25T18:52:17.474Z,29.68
2022-08-25T18:55:07.802Z,29.69
2022-08-25T18:57:58.072Z,29.67
2022-08-25T19:00:46.548Z,29.66
2022-08-25T19:03:35.446Z,29.67
2022-08-25T19:06:23.985Z,29.67
2022-08-25T19:09:12.679Z,29.68
2022-08-25T19:12:01.459Z,29.67
2022-08-25T19:14:51.432Z,29.66
2022-08-25T19:17:40.256Z,29.64
2022-08-25T19:20:30.528Z,29.64
2022-08-25T19:23:19.427Z,29.63
2022-08-25T19:26:16.921Z,29.64
2022-08-25T19:29:09.326Z,29.66
2022-08-25T19:32:01.233Z,29.64
2022-08-25T19:34:51.564Z,29.64
2022-08-25T19:37:40.418Z,29.61
2022-08-25T19:40:30.456Z,29.63
2022-08-25T19:43:19.756Z,29.66
2022-08-25T19:46:08.963Z,29.64
2022-08-25T19:49:01.500Z,29.63
2022-08-25T19:51:53.499Z,29.66
2022-08-25T19:54:45.617Z,29.65
2022-08-25T19:57:42.658Z,29.64
2022-08-25T20:00:34.144Z,29.62
2022-08-25T20:03:25.937Z,29.62
2022-08-25T20:06:16.242Z,29.64
2022-08-25T20:09:05.203Z,29.63
2022-08-25T20:11:54.186Z,29.62
2022-08-25T20:14:43.724Z,29.63
2022-08-25T20:17:32.273Z,29.63
2022-08-25T20:20:22.712Z,29.65
2022-08-25T20:23:30.179Z,29.63
2022-08-25T20:26:18.691Z,29.61
2022-08-25T20:29:07.318Z,29.60
2022-08-25T20:31:55.834Z,29.64
2022-08-25T20:37:38.775Z,29.60
2022-08-25T20:40:30.668Z,29.60
2022-08-25T20:43:20.735Z,29.60
2022-08-25T20:46:10.127Z,29.62
2022-08-25T20:48:58.703Z,29.55
2022-08-25T20:51:50.582Z,29.59
2022-08-25T20:54:40.338Z,29.59
2022-08-25T20:57:31.088Z,29.59
2022-08-25T21:00:23.563Z,29.57
2022-08-25T21:03:13.501Z,29.58
2022-08-25T21:06:02.015Z,29.55
2022-08-25T21:08:50.537Z,29.59
2022-08-25T21:11:39.439Z,29.58
2022-08-25T21:14:30.162Z,29.62
2022-08-25T21:17:19.514Z,29.59
2022-08-25T21:20:09.475Z,29.58
2022-08-25T21:22:58.004Z,29.59
2022-08-25T21:25:47.452Z,29.56
2022-08-25T21:28:35.977Z,29.61
2022-08-25T21:31:26.457Z,29.60
2022-08-25T21:34:15.852Z,29.58
2022-08-25T21:37:04.403Z,29.56
2022-08-25T21:39:54.137Z,29.59
2022-08-25T21:42:42.698Z,29.58
2022-08-25T21:45:33.296Z,29.59
2022-08-25T21:48:26.175Z,29.63
2022-08-25T21:51:16.797Z,29.57
2022-08-25T21:54:10.327Z,29.60
2022-08-25T21:57:03.229Z,29.57
2022-08-25T21:59:51.731Z,29.57
2022-08-25T22:02:40.365Z,29.57
2022-08-25T22:05:33.954Z,29.57
2022-08-25T22:08:22.513Z,29.59
2022-08-25T22:11:19.343Z,29.57
2022-08-25T22:14:08.020Z,29.58
2022-08-25T22:16:57.007Z,29.55
2022-08-25T22:19:46.602Z,29.58
2022-08-25T22:22:36.547Z,29.57
2022-08-25T22:25:25.231Z,29.56
2022-08-25T22:28:15.032Z,29.56
2022-08-25T22:31:04.090Z,29.59
2022-08-25T22:33:53.443Z,29.57
2022-08-25T22:36:42.923Z,29.55
2022-08-25T22:39:34.300Z,29.58
2022-08-25T22:42:25.614Z,29.53
2022-08-25T22:45:14.490Z,29.53
2022-08-25T22:48:03.267Z,29.53
2022-08-25T22:50:51.789Z,29.55
2022-08-25T22:53:41.309Z,29.56
2022-08-25T22:56:34.365Z,29.56
2022-08-25T22:59:22.998Z,29.55
2022-08-25T23:02:11.519Z,29.55
2022-08-25T23:05:00.926Z,29.54
2022-08-25T23:07:50.548Z,29.54
2022-08-25T23:10:39.227Z,29.55
2022-08-25T23:13:34.481Z,29.53
2022-08-25T23:16:23.345Z,29.52
2022-08-25T23:19:13.966Z,29.53
2022-08-25T23:22:11.396Z,29.56
2022-08-25T23:25:01.941Z,29.57
2022-08-25T23:27:52.090Z,29.55
2022-08-25T23:30:44.937Z,29.55
2022-08-25T23:33:46.004Z,29.57
2022-08-25T23:36:34.830Z,29.53
2022-08-25T23:39:24.063Z,29.51
2022-08-25T23:42:12.699Z,29.52
2022-08-25T23:45:01.249Z,29.52
2022-08-25T23:47:52.396Z,29.54
2022-08-25T23:50:42.373Z,29.54
2022-08-25T23:53:31.645Z,29.54
2022-08-25T23:56:20.166Z,29.51
2022-08-25T23:59:10.722Z,29.50
